sensor_id;sensor_type;location;lat;lon;timestamp;pressure;altitude;pressure_sealevel;temperature;humidity
61870;BME280;47810;42.264;23.826;2023-04-08T00:02:04;93915.00;;;2.67;69.65
61870;BME280;47810;42.264;23.826;2023-04-08T00:04:29;93912.53;;;2.62;69.95
61870;BME280;47810;42.264;23.826;2023-04-08T00:06:55;93906.88;;;2.49;70.57
61870;BME280;47810;42.264;23.826;2023-04-08T00:09:21;93920.91;;;2.45;70.50
61870;BME280;47810;42.264;23.826;2023-04-08T00:11:47;93921.84;;;2.44;70.91
61870;BME280;47810;42.264;23.826;2023-04-08T00:14:13;93917.41;;;2.46;70.94
61870;BME280;47810;42.264;23.826;2023-04-08T00:16:38;93919.44;;;2.38;70.63
61870;BME280;47810;42.264;23.826;2023-04-08T00:19:04;93917.69;;;2.37;70.25
61870;BME280;47810;42.264;23.826;2023-04-08T00:21:31;93917.41;;;2.46;70.13
61870;BME280;47810;42.264;23.826;2023-04-08T00:23:56;93907.69;;;2.51;70.07
61870;BME280;47810;42.264;23.826;2023-04-08T00:26:22;93902.38;;;2.54;69.93
61870;BME280;47810;42.264;23.826;2023-04-08T00:28:47;93903.16;;;2.56;70.29
61870;BME280;47810;42.264;23.826;2023-04-08T00:31:13;93899.13;;;2.48;70.13
61870;BME280;47810;42.264;23.826;2023-04-08T00:33:39;93897.94;;;2.56;70.53
61870;BME280;47810;42.264;23.826;2023-04-08T00:36:04;93902.44;;;2.78;70.14
61870;BME280;47810;42.264;23.826;2023-04-08T00:38:30;93899.75;;;3.04;68.72
61870;BME280;47810;42.264;23.826;2023-04-08T00:40:55;93905.19;;;2.98;70.06
61870;BME280;47810;42.264;23.826;2023-04-08T00:43:21;93901.13;;;3.15;68.89
61870;BME280;47810;42.264;23.826;2023-04-08T00:45:47;93913.16;;;3.19;68.91
61870;BME280;47810;42.264;23.826;2023-04-08T00:48:12;93918.38;;;3.19;68.76
61870;BME280;47810;42.264;23.826;2023-04-08T00:50:38;93922.94;;;3.37;68.06
61870;BME280;47810;42.264;23.826;2023-04-08T00:53:03;93919.63;;;3.32;67.71
61870;BME280;47810;42.264;23.826;2023-04-08T00:55:29;93923.59;;;3.42;67.90
61870;BME280;47810;42.264;23.826;2023-04-08T00:57:55;93924.72;;;3.35;67.44
61870;BME280;47810;42.264;23.826;2023-04-08T01:00:21;93916.00;;;3.36;66.76
61870;BME280;47810;42.264;23.826;2023-04-08T01:02:54;93915.19;;;3.11;67.95
61870;BME280;47810;42.264;23.826;2023-04-08T01:08:08;93920.63;;;2.79;69.23
61870;BME280;47810;42.264;23.826;2023-04-08T01:10:35;93923.28;;;2.78;69.52
61870;BME280;47810;42.264;23.826;2023-04-08T01:13:07;93923.50;;;2.72;69.29
61870;BME280;47810;42.264;23.826;2023-04-08T01:15:35;93921.81;;;2.71;69.99
61870;BME280;47810;42.264;23.826;2023-04-08T01:18:04;93924.19;;;2.77;69.52
61870;BME280;47810;42.264;23.826;2023-04-08T01:20:31;93916.59;;;2.71;69.72
61870;BME280;47810;42.264;23.826;2023-04-08T01:27:57;93920.91;;;2.45;70.10
61870;BME280;47810;42.264;23.826;2023-04-08T01:30:24;93922.09;;;2.62;69.80
61870;BME280;47810;42.264;23.826;2023-04-08T01:32:51;93920.06;;;2.45;70.18
61870;BME280;47810;42.264;23.826;2023-04-08T01:35:18;93920.94;;;2.44;70.41
61870;BME280;47810;42.264;23.826;2023-04-08T01:37:44;93928.38;;;2.29;70.91
61870;BME280;47810;42.264;23.826;2023-04-08T01:40:12;93930.53;;;2.43;71.43
61870;BME280;47810;42.264;23.826;2023-04-08T01:42:37;93925.34;;;2.68;70.59
61870;BME280;47810;42.264;23.826;2023-04-08T01:45:03;93923.06;;;2.59;69.60
61870;BME280;47810;42.264;23.826;2023-04-08T01:47:30;93928.34;;;2.58;70.00
61870;BME280;47810;42.264;23.826;2023-04-08T01:49:56;93929.00;;;2.63;69.54
61870;BME280;47810;42.264;23.826;2023-04-08T01:52:22;93930.22;;;2.52;70.02
61870;BME280;47810;42.264;23.826;2023-04-08T01:54:49;93939.16;;;2.45;70.36
61870;BME280;47810;42.264;23.826;2023-04-08T01:57:20;93938.03;;;2.52;70.31
61870;BME280;47810;42.264;23.826;2023-04-08T01:59:49;93943.47;;;2.46;70.13
61870;BME280;47810;42.264;23.826;2023-04-08T02:02:15;93947.56;;;2.27;71.64
61870;BME280;47810;42.264;23.826;2023-04-08T02:04:42;93950.88;;;2.32;72.22
61870;BME280;47810;42.264;23.826;2023-04-08T02:07:08;93951.47;;;2.40;73.05
61870;BME280;47810;42.264;23.826;2023-04-08T02:09:33;93953.59;;;2.55;72.81
61870;BME280;47810;42.264;23.826;2023-04-08T02:11:59;93960.50;;;2.56;72.38
61870;BME280;47810;42.264;23.826;2023-04-08T02:14:26;93953.81;;;2.74;71.56
61870;BME280;47810;42.264;23.826;2023-04-08T02:16:53;93956.34;;;3.02;69.97
61870;BME280;47810;42.264;23.826;2023-04-08T02:19:29;93957.56;;;2.92;69.67
61870;BME280;47810;42.264;23.826;2023-04-08T02:21:58;93954.16;;;2.90;69.92
61870;BME280;47810;42.264;23.826;2023-04-08T02:24:26;93952.25;;;2.95;70.08
61870;BME280;47810;42.264;23.826;2023-04-08T02:26:53;93956.81;;;3.14;68.84
61870;BME280;47810;42.264;23.826;2023-04-08T02:29:20;93957.56;;;2.92;69.40
61870;BME280;47810;42.264;23.826;2023-04-08T02:31:46;93965.28;;;2.95;70.29
61870;BME280;47810;42.264;23.826;2023-04-08T02:34:13;93963.47;;;2.97;69.85
61870;BME280;47810;42.264;23.826;2023-04-08T02:36:40;93957.88;;;3.08;69.57
61870;BME280;47810;42.264;23.826;2023-04-08T02:39:07;93952.00;;;3.01;70.01
61870;BME280;47810;42.264;23.826;2023-04-08T02:41:32;93951.03;;;3.06;69.38
61870;BME280;47810;42.264;23.826;2023-04-08T02:44:00;93951.69;;;3.11;70.07
61870;BME280;47810;42.264;23.826;2023-04-08T02:46:26;93947.06;;;3.19;71.40
61870;BME280;47810;42.264;23.826;2023-04-08T02:48:52;93941.97;;;3.16;72.51
61870;BME280;47810;42.264;23.826;2023-04-08T02:51:17;93948.44;;;3.29;71.72
61870;BME280;47810;42.264;23.826;2023-04-08T02:53:43;93951.06;;;3.29;70.93
61870;BME280;47810;42.264;23.826;2023-04-08T02:56:09;93955.63;;;3.22;71.47
61870;BME280;47810;42.264;23.826;2023-04-08T02:58:35;93956.69;;;3.17;70.68
61870;BME280;47810;42.264;23.826;2023-04-08T03:01:00;93962.34;;;3.04;70.47
61870;BME280;47810;42.264;23.826;2023-04-08T03:03:26;93970.28;;;3.01;71.38
61870;BME280;47810;42.264;23.826;2023-04-08T03:05:56;93966.06;;;3.22;72.68
61870;BME280;47810;42.264;23.826;2023-04-08T03:08:22;93967.75;;;3.48;71.03
61870;BME280;47810;42.264;23.826;2023-04-08T03:10:48;93962.53;;;3.48;70.95
61870;BME280;47810;42.264;23.826;2023-04-08T03:13:14;93963.06;;;3.33;70.64
61870;BME280;47810;42.264;23.826;2023-04-08T03:15:40;93962.50;;;3.25;72.20
61870;BME280;47810;42.264;23.826;2023-04-08T03:18:05;93960.34;;;3.36;70.81
61870;BME280;47810;42.264;23.826;2023-04-08T03:20:31;93957.31;;;3.48;68.86
61870;BME280;47810;42.264;23.826;2023-04-08T03:22:57;93963.88;;;3.59;68.03
61870;BME280;47810;42.264;23.826;2023-04-08T03:25:22;93971.22;;;3.24;69.15
61870;BME280;47810;42.264;23.826;2023-04-08T03:27:48;93963.06;;;3.33;70.47
61870;BME280;47810;42.264;23.826;2023-04-08T03:30:13;93959.56;;;3.34;69.70
61870;BME280;47810;42.264;23.826;2023-04-08T03:32:39;93963.19;;;3.30;70.17
61870;BME280;47810;42.264;23.826;2023-04-08T03:35:05;93960.31;;;3.38;69.72
61870;BME280;47810;42.264;23.826;2023-04-08T03:37:30;93971.91;;;3.29;70.26
61870;BME280;47810;42.264;23.826;2023-04-08T03:39:56;93967.50;;;3.31;70.49
61870;BME280;47810;42.264;23.826;2023-04-08T03:42:22;93962.00;;;3.39;70.60
61870;BME280;47810;42.264;23.826;2023-04-08T03:44:48;93956.66;;;3.18;71.09
61870;BME280;47810;42.264;23.826;2023-04-08T03:47:13;93959.56;;;3.34;71.39
61870;BME280;47810;42.264;23.826;2023-04-08T03:49:39;93962.09;;;3.61;70.73
61870;BME280;47810;42.264;23.826;2023-04-08T03:52:06;93965.72;;;3.57;70.67
61870;BME280;47810;42.264;23.826;2023-04-08T03:54:32;93969.38;;;3.74;69.33
61870;BME280;47810;42.264;23.826;2023-04-08T03:56:57;93965.72;;;3.57;69.62
61870;BME280;47810;42.264;23.826;2023-04-08T03:59:24;93970.94;;;3.57;70.65
61870;BME280;47810;42.264;23.826;2023-04-08T04:01:49;93972.28;;;3.67;69.92
61870;BME280;47810;42.264;23.826;2023-04-08T04:04:16;93966.44;;;3.60;70.17
61870;BME280;47810;42.264;23.826;2023-04-08T04:06:42;93976.91;;;3.60;69.58
61870;BME280;47810;42.264;23.826;2023-04-08T04:09:07;93977.38;;;3.46;70.72
61870;BME280;47810;42.264;23.826;2023-04-08T04:11:33;93975.00;;;3.40;71.47
61870;BME280;47810;42.264;23.826;2023-04-08T04:13:59;93979.09;;;3.47;71.33
61870;BME280;47810;42.264;23.826;2023-04-08T04:16:25;93979.66;;;3.56;71.37
61870;BME280;47810;42.264;23.826;2023-04-08T04:18:51;93984.09;;;3.77;69.71
61870;BME280;47810;42.264;23.826;2023-04-08T04:21:16;93985.56;;;3.84;69.80
61870;BME280;47810;42.264;23.826;2023-04-08T04:23:43;93987.41;;;3.82;70.66
61870;BME280;47810;42.264;23.826;2023-04-08T04:26:08;93991.94;;;3.54;71.38
61870;BME280;47810;42.264;23.826;2023-04-08T04:28:34;93984.13;;;3.52;71.60
61870;BME280;47810;42.264;23.826;2023-04-08T04:31:00;93993.16;;;3.43;71.72
61870;BME280;47810;42.264;23.826;2023-04-08T04:33:25;93988.63;;;3.48;71.35
61870;BME280;47810;42.264;23.826;2023-04-08T04:35:51;93992.38;;;3.41;71.60
61870;BME280;47810;42.264;23.826;2023-04-08T04:38:17;94000.44;;;3.34;71.42
61870;BME280;47810;42.264;23.826;2023-04-08T04:40:42;94005.13;;;3.24;73.11
61870;BME280;47810;42.264;23.826;2023-04-08T04:43:08;94004.72;;;3.11;73.99
61870;BME280;47810;42.264;23.826;2023-04-08T04:45:35;94001.97;;;3.16;73.56
61870;BME280;47810;42.264;23.826;2023-04-08T04:48:01;93996.09;;;3.34;74.37
61870;BME280;47810;42.264;23.826;2023-04-08T04:50:27;93995.75;;;3.43;74.14
61870;BME280;47810;42.264;23.826;2023-04-08T04:52:53;93992.03;;;3.50;72.93
61870;BME280;47810;42.264;23.826;2023-04-08T04:55:19;93996.25;;;3.55;73.31
61870;BME280;47810;42.264;23.826;2023-04-08T04:57:44;94001.75;;;3.47;73.43
61870;BME280;47810;42.264;23.826;2023-04-08T05:00:10;94005.09;;;3.50;73.56
61870;BME280;47810;42.264;23.826;2023-04-08T05:02:36;94000.66;;;3.53;72.94
61870;BME280;47810;42.264;23.826;2023-04-08T05:05:02;94008.16;;;3.62;72.90
61870;BME280;47810;42.264;23.826;2023-04-08T05:07:27;93994.75;;;3.71;71.42
61870;BME280;47810;42.264;23.826;2023-04-08T05:09:53;94002.56;;;3.72;72.19
61870;BME280;47810;42.264;23.826;2023-04-08T05:12:18;93999.88;;;3.74;72.00
61870;BME280;47810;42.264;23.826;2023-04-08T05:14:46;94004.31;;;3.95;69.37
61870;BME280;47810;42.264;23.826;2023-04-08T05:17:12;94001.03;;;3.67;69.91
61870;BME280;47810;42.264;23.826;2023-04-08T05:19:37;94007.94;;;3.91;68.80
61870;BME280;47810;42.264;23.826;2023-04-08T05:22:03;94006.91;;;3.72;68.26
61870;BME280;47810;42.264;23.826;2023-04-08T05:24:32;94015.25;;;3.33;68.96
61870;BME280;47810;42.264;23.826;2023-04-08T05:26:58;94009.09;;;3.36;68.93
61870;BME280;47810;42.264;23.826;2023-04-08T05:29:24;94015.03;;;3.64;69.18
61870;BME280;47810;42.264;23.826;2023-04-08T05:31:49;94012.97;;;3.49;68.79
61870;BME280;47810;42.264;23.826;2023-04-08T05:34:15;94017.34;;;3.48;69.85
61870;BME280;47810;42.264;23.826;2023-04-08T05:36:47;94013.50;;;3.82;70.37
61870;BME280;47810;42.264;23.826;2023-04-08T05:39:16;94019.53;;;4.08;69.00
61870;BME280;47810;42.264;23.826;2023-04-08T05:41:42;94020.38;;;4.08;69.42
61870;BME280;47810;42.264;23.826;2023-04-08T05:44:08;94013.56;;;4.26;69.00
61870;BME280;47810;42.264;23.826;2023-04-08T05:46:34;94010.19;;;4.24;68.65
61870;BME280;47810;42.264;23.826;2023-04-08T05:48:59;94004.47;;;4.36;69.52
61870;BME280;47810;42.264;23.826;2023-04-08T05:51:25;94005.03;;;4.44;69.40
61870;BME280;47810;42.264;23.826;2023-04-08T05:53:51;93998.75;;;4.49;69.93
61870;BME280;47810;42.264;23.826;2023-04-08T05:56:18;93997.47;;;4.59;68.14
61870;BME280;47810;42.264;23.826;2023-04-08T05:58:45;93999.56;;;4.51;68.67
61870;BME280;47810;42.264;23.826;2023-04-08T06:01:10;94007.16;;;4.57;68.82
61870;BME280;47810;42.264;23.826;2023-04-08T06:03:38;93997.22;;;4.65;68.89
61870;BME280;47810;42.264;23.826;2023-04-08T06:06:08;93998.03;;;4.67;69.40
61870;BME280;47810;42.264;23.826;2023-04-08T06:08:33;94007.03;;;4.60;70.23
61870;BME280;47810;42.264;23.826;2023-04-08T06:10:59;94006.56;;;4.72;70.96
61870;BME280;47810;42.264;23.826;2023-04-08T06:13:25;94009.81;;;4.77;70.17
61870;BME280;47810;42.264;23.826;2023-04-08T06:15:50;94004.59;;;4.77;71.16
61870;BME280;47810;42.264;23.826;2023-04-08T06:18:16;94010.13;;;4.92;71.83
61870;BME280;47810;42.264;23.826;2023-04-08T06:20:41;94010.88;;;4.94;72.06
61870;BME280;47810;42.264;23.826;2023-04-08T06:23:07;94000.38;;;5.16;71.41
61870;BME280;47810;42.264;23.826;2023-04-08T06:25:32;94006.22;;;5.22;70.52
61870;BME280;47810;42.264;23.826;2023-04-08T06:27:58;94001.78;;;5.24;71.96
61870;BME280;47810;42.264;23.826;2023-04-08T06:30:23;94006.50;;;5.36;70.25
61870;BME280;47810;42.264;23.826;2023-04-08T06:32:49;94005.03;;;5.50;69.69
61870;BME280;47810;42.264;23.826;2023-04-08T06:35:15;94001.09;;;5.60;69.27
61870;BME280;47810;42.264;23.826;2023-04-08T06:37:40;94000.69;;;5.69;70.23
61870;BME280;47810;42.264;23.826;2023-04-08T06:40:06;94006.44;;;5.77;68.98
61870;BME280;47810;42.264;23.826;2023-04-08T06:42:32;94009.34;;;5.90;68.27
61870;BME280;47810;42.264;23.826;2023-04-08T06:45:00;94007.34;;;5.97;67.89
61870;BME280;47810;42.264;23.826;2023-04-08T06:47:25;94000.97;;;6.02;68.20
61870;BME280;47810;42.264;23.826;2023-04-08T06:49:51;94010.19;;;6.11;67.96
61870;BME280;47810;42.264;23.826;2023-04-08T06:52:16;94002.63;;;6.24;68.32
61870;BME280;47810;42.264;23.826;2023-04-08T06:54:43;94002.38;;;6.28;67.74
61870;BME280;47810;42.264;23.826;2023-04-08T06:57:09;94002.19;;;6.14;67.94
61870;BME280;47810;42.264;23.826;2023-04-08T06:59:34;94004.88;;;6.13;68.03
61870;BME280;47810;42.264;23.826;2023-04-08T07:02:00;94001.63;;;6.26;67.62
61870;BME280;47810;42.264;23.826;2023-04-08T07:04:25;94002.06;;;6.36;67.39
61870;BME280;47810;42.264;23.826;2023-04-08T07:06:51;94003.03;;;6.34;67.22
61870;BME280;47810;42.264;23.826;2023-04-08T07:09:17;94004.59;;;6.38;66.94
61870;BME280;47810;42.264;23.826;2023-04-08T07:11:42;94004.25;;;6.45;66.66
61870;BME280;47810;42.264;23.826;2023-04-08T07:14:10;94004.94;;;6.49;67.39
61870;BME280;47810;42.264;23.826;2023-04-08T07:16:36;94007.72;;;6.46;67.18
61870;BME280;47810;42.264;23.826;2023-04-08T07:19:01;94007.13;;;6.58;66.78
61870;BME280;47810;42.264;23.826;2023-04-08T07:21:27;94004.97;;;6.66;66.26
61870;BME280;47810;42.264;23.826;2023-04-08T07:23:52;94009.66;;;6.79;65.65
61870;BME280;47810;42.264;23.826;2023-04-08T07:26:18;94009.66;;;6.79;66.02
61870;BME280;47810;42.264;23.826;2023-04-08T07:28:44;94011.19;;;6.83;66.76
61870;BME280;47810;42.264;23.826;2023-04-08T07:31:10;94012.44;;;6.93;67.02
61870;BME280;47810;42.264;23.826;2023-04-08T07:33:36;94015.84;;;6.95;66.75
61870;BME280;47810;42.264;23.826;2023-04-08T07:36:02;94008.47;;;7.03;66.41
61870;BME280;47810;42.264;23.826;2023-04-08T07:38:27;94018.03;;;7.04;66.34
61870;BME280;47810;42.264;23.826;2023-04-08T07:40:53;94017.34;;;7.18;66.62
61870;BME280;47810;42.264;23.826;2023-04-08T07:43:18;94014.00;;;7.32;65.00
61870;BME280;47810;42.264;23.826;2023-04-08T07:45:44;94015.59;;;7.36;64.99
61870;BME280;47810;42.264;23.826;2023-04-08T07:48:10;94017.50;;;7.50;64.60
61870;BME280;47810;42.264;23.826;2023-04-08T07:50:36;94010.16;;;7.56;64.39
61870;BME280;47810;42.264;23.826;2023-04-08T07:53:02;94011.16;;;7.71;65.36
61870;BME280;47810;42.264;23.826;2023-04-08T07:55:31;94008.53;;;7.71;64.03
61870;BME280;47810;42.264;23.826;2023-04-08T07:57:57;94018.84;;;7.91;63.42
61870;BME280;47810;42.264;23.826;2023-04-08T08:00:23;94017.50;;;8.00;62.07
61870;BME280;47810;42.264;23.826;2023-04-08T08:02:48;94023.09;;;7.94;62.64
61870;BME280;47810;42.264;23.826;2023-04-08T08:05:14;94031.56;;;7.99;63.50
61870;BME280;47810;42.264;23.826;2023-04-08T08:07:39;94026.81;;;7.90;62.47
61870;BME280;47810;42.264;23.826;2023-04-08T08:10:05;94029.28;;;7.93;61.49
61870;BME280;47810;42.264;23.826;2023-04-08T08:12:31;94027.50;;;7.93;61.68
61870;BME280;47810;42.264;23.826;2023-04-08T08:14:56;94032.66;;;7.95;62.15
61870;BME280;47810;42.264;23.826;2023-04-08T08:17:23;94031.81;;;7.94;61.44
61870;BME280;47810;42.264;23.826;2023-04-08T08:19:49;94032.91;;;7.90;62.17
61870;BME280;47810;42.264;23.826;2023-04-08T08:22:15;94025.88;;;7.91;61.23
61870;BME280;47810;42.264;23.826;2023-04-08T08:24:41;94027.72;;;7.89;61.14
61870;BME280;47810;42.264;23.826;2023-04-08T08:27:09;94042.75;;;7.87;61.43
61870;BME280;47810;42.264;23.826;2023-04-08T08:29:34;94042.09;;;7.99;62.45
61870;BME280;47810;42.264;23.826;2023-04-08T08:32:01;94045.50;;;8.01;61.35
61870;BME280;47810;42.264;23.826;2023-04-08T08:34:28;94042.69;;;8.04;60.79
61870;BME280;47810;42.264;23.826;2023-04-08T08:36:53;94040.59;;;8.11;59.81
61870;BME280;47810;42.264;23.826;2023-04-08T08:39:19;94038.94;;;8.26;59.05
61870;BME280;47810;42.264;23.826;2023-04-08T08:41:44;94038.16;;;8.41;59.89
61870;BME280;47810;42.264;23.826;2023-04-08T08:44:10;94032.69;;;8.44;60.20
61870;BME280;47810;42.264;23.826;2023-04-08T08:46:36;94030.34;;;8.55;59.06
61870;BME280;47810;42.264;23.826;2023-04-08T08:49:07;94029.50;;;8.71;59.53
61870;BME280;47810;42.264;23.826;2023-04-08T08:51:32;94028.13;;;8.79;58.04
61870;BME280;47810;42.264;23.826;2023-04-08T08:54:00;94028.06;;;8.81;58.16
61870;BME280;47810;42.264;23.826;2023-04-08T08:56:26;94032.38;;;8.82;57.26
61870;BME280;47810;42.264;23.826;2023-04-08T08:58:52;94035.63;;;8.87;57.12
61870;BME280;47810;42.264;23.826;2023-04-08T09:06:32;94033.72;;;8.89;58.62
61870;BME280;47810;42.264;23.826;2023-04-08T09:08:58;94034.69;;;8.88;57.84
61870;BME280;47810;42.264;23.826;2023-04-08T09:11:23;94034.50;;;8.91;58.61
61870;BME280;47810;42.264;23.826;2023-04-08T09:13:50;94040.72;;;8.90;57.72
61870;BME280;47810;42.264;23.826;2023-04-08T09:16:16;94041.56;;;8.59;58.18
61870;BME280;47810;42.264;23.826;2023-04-08T09:18:46;94035.97;;;8.65;59.23
61870;BME280;47810;42.264;23.826;2023-04-08T09:21:13;94030.88;;;8.78;58.96
61870;BME280;47810;42.264;23.826;2023-04-08T09:26:12;94033.94;;;8.86;59.10
61870;BME280;47810;42.264;23.826;2023-04-08T09:28:38;94039.34;;;8.99;60.85
61870;BME280;47810;42.264;23.826;2023-04-08T09:33:46;94037.78;;;9.26;59.04
61870;BME280;47810;42.264;23.826;2023-04-08T09:36:12;94032.19;;;9.47;57.13
61870;BME280;47810;42.264;23.826;2023-04-08T09:38:38;94029.03;;;9.56;56.68
61870;BME280;47810;42.264;23.826;2023-04-08T09:41:05;94030.81;;;9.55;56.95
61870;BME280;47810;42.264;23.826;2023-04-08T09:43:31;94036.94;;;9.56;57.75
61870;BME280;47810;42.264;23.826;2023-04-08T09:45:58;94034.69;;;9.34;58.28
61870;BME280;47810;42.264;23.826;2023-04-08T09:48:26;94027.06;;;9.29;58.83
61870;BME280;47810;42.264;23.826;2023-04-08T09:50:57;94027.03;;;9.45;58.03
61870;BME280;47810;42.264;23.826;2023-04-08T09:53:33;94030.59;;;9.44;58.07
61870;BME280;47810;42.264;23.826;2023-04-08T09:55:59;94034.69;;;9.34;58.02
61870;BME280;47810;42.264;23.826;2023-04-08T09:58:27;94033.53;;;9.24;58.63
61870;BME280;47810;42.264;23.826;2023-04-08T10:00:53;94034.66;;;9.20;58.18
61870;BME280;47810;42.264;23.826;2023-04-08T10:05:48;94037.06;;;9.08;58.41
61870;BME280;47810;42.264;23.826;2023-04-08T10:08:14;94035.94;;;9.13;58.98
61870;BME280;47810;42.264;23.826;2023-04-08T10:10:40;94047.50;;;9.10;58.50
61870;BME280;47810;42.264;23.826;2023-04-08T10:13:06;94036.34;;;9.05;58.91
61870;BME280;47810;42.264;23.826;2023-04-08T10:15:33;94036.97;;;9.10;59.51
61870;BME280;47810;42.264;23.826;2023-04-08T10:20:49;94035.13;;;8.96;59.94
61870;BME280;47810;42.264;23.826;2023-04-08T10:23:15;94033.06;;;9.01;60.63
61870;BME280;47810;42.264;23.826;2023-04-08T10:25:42;94033.06;;;9.01;60.10
61870;BME280;47810;42.264;23.826;2023-04-08T10:30:41;94017.72;;;9.24;60.40
61870;BME280;47810;42.264;23.826;2023-04-08T10:38:18;94006.19;;;9.71;60.50
61870;BME280;47810;42.264;23.826;2023-04-08T10:40:44;94016.59;;;10.02;60.36
61870;BME280;47810;42.264;23.826;2023-04-08T10:43:13;94015.84;;;10.15;59.09
61870;BME280;47810;42.264;23.826;2023-04-08T10:45:39;94012.63;;;10.10;58.57
61870;BME280;47810;42.264;23.826;2023-04-08T10:50:36;94019.16;;;9.60;59.10
61870;BME280;47810;42.264;23.826;2023-04-08T10:53:02;94013.81;;;9.61;59.39
61870;BME280;47810;42.264;23.826;2023-04-08T10:55:27;94016.69;;;9.56;60.21
61870;BME280;47810;42.264;23.826;2023-04-08T10:58:06;94020.38;;;9.54;60.56
61870;BME280;47810;42.264;23.826;2023-04-08T11:00:35;94018.94;;;9.48;59.32
61870;BME280;47810;42.264;23.826;2023-04-08T11:03:02;94018.03;;;9.33;60.34
61870;BME280;47810;42.264;23.826;2023-04-08T11:05:31;94012.50;;;9.38;60.01
61870;BME280;47810;42.264;23.826;2023-04-08T11:07:59;94012.59;;;9.37;60.18
61870;BME280;47810;42.264;23.826;2023-04-08T11:10:26;94013.06;;;9.43;60.50
61870;BME280;47810;42.264;23.826;2023-04-08T11:12:55;94016.31;;;9.48;59.84
61870;BME280;47810;42.264;23.826;2023-04-08T11:15:21;94009.72;;;9.55;60.88
61870;BME280;47810;42.264;23.826;2023-04-08T11:17:48;94013.50;;;9.51;61.69
61870;BME280;47810;42.264;23.826;2023-04-08T11:20:14;94009.34;;;9.47;61.80
61870;BME280;47810;42.264;23.826;2023-04-08T11:22:39;94018.00;;;9.49;62.24
61870;BME280;47810;42.264;23.826;2023-04-08T11:25:08;94015.06;;;9.70;61.72
61870;BME280;47810;42.264;23.826;2023-04-08T11:27:34;94011.47;;;9.71;63.36
61870;BME280;47810;42.264;23.826;2023-04-08T11:30:00;94013.81;;;9.61;63.05
61870;BME280;47810;42.264;23.826;2023-04-08T11:32:26;94011.16;;;9.61;64.22
61870;BME280;47810;42.264;23.826;2023-04-08T11:34:53;94009.78;;;9.70;65.42
61870;BME280;47810;42.264;23.826;2023-04-08T11:37:18;93999.78;;;9.61;65.86
61870;BME280;47810;42.264;23.826;2023-04-08T11:39:45;94005.59;;;9.66;65.72
61870;BME280;47810;42.264;23.826;2023-04-08T11:44:51;94008.09;;;9.39;65.83
61870;BME280;47810;42.264;23.826;2023-04-08T11:47:17;94003.03;;;9.50;65.10
61870;BME280;47810;42.264;23.826;2023-04-08T11:49:43;94000.84;;;9.42;64.79
61870;BME280;47810;42.264;23.826;2023-04-08T11:52:09;94000.06;;;9.26;64.96
61870;BME280;47810;42.264;23.826;2023-04-08T11:54:39;93994.97;;;9.23;66.53
61870;BME280;47810;42.264;23.826;2023-04-08T11:57:05;93995.09;;;9.36;64.86
61870;BME280;47810;42.264;23.826;2023-04-08T11:59:31;93992.31;;;9.53;64.44
61870;BME280;47810;42.264;23.826;2023-04-08T12:01:57;93986.50;;;9.62;65.06
61870;BME280;47810;42.264;23.826;2023-04-08T12:04:23;93991.69;;;9.78;65.34
61870;BME280;47810;42.264;23.826;2023-04-08T12:06:48;93987.75;;;9.85;66.39
61870;BME280;47810;42.264;23.826;2023-04-08T12:09:14;93993.19;;;9.82;64.38
61870;BME280;47810;42.264;23.826;2023-04-08T12:11:40;93989.72;;;9.67;63.93
61870;BME280;47810;42.264;23.826;2023-04-08T12:14:06;93996.00;;;9.65;64.49
61870;BME280;47810;42.264;23.826;2023-04-08T12:16:31;93982.09;;;9.91;66.49
61870;BME280;47810;42.264;23.826;2023-04-08T12:18:57;93977.97;;;10.30;64.53
61870;BME280;47810;42.264;23.826;2023-04-08T12:21:23;93975.50;;;10.56;62.81
61870;BME280;47810;42.264;23.826;2023-04-08T12:23:48;93969.50;;;10.39;61.70
61870;BME280;47810;42.264;23.826;2023-04-08T12:26:14;93976.78;;;10.77;64.29
61870;BME280;47810;42.264;23.826;2023-04-08T12:28:39;93967.78;;;11.07;61.17
61870;BME280;47810;42.264;23.826;2023-04-08T12:31:05;93966.59;;;11.25;58.67
61870;BME280;47810;42.264;23.826;2023-04-08T12:33:30;93966.47;;;11.14;57.46
61870;BME280;47810;42.264;23.826;2023-04-08T12:35:56;93965.50;;;11.15;58.86
61870;BME280;47810;42.264;23.826;2023-04-08T12:38:23;93955.53;;;11.06;58.70
61870;BME280;47810;42.264;23.826;2023-04-08T12:40:49;93955.06;;;10.86;58.32
61870;BME280;47810;42.264;23.826;2023-04-08T12:43:14;93951.84;;;10.81;58.65
61870;BME280;47810;42.264;23.826;2023-04-08T12:45:40;93953.44;;;10.84;59.35
61870;BME280;47810;42.264;23.826;2023-04-08T12:48:05;93947.47;;;10.94;60.42
61870;BME280;47810;42.264;23.826;2023-04-08T12:50:31;93945.66;;;11.22;56.96
61870;BME280;47810;42.264;23.826;2023-04-08T12:52:57;93943.81;;;11.10;57.48
61870;BME280;47810;42.264;23.826;2023-04-08T12:55:22;93938.84;;;10.78;58.42
61870;BME280;47810;42.264;23.826;2023-04-08T12:57:51;93939.88;;;10.48;58.70
61870;BME280;47810;42.264;23.826;2023-04-08T13:00:16;93939.16;;;10.32;58.62
61870;BME280;47810;42.264;23.826;2023-04-08T13:02:42;93937.28;;;10.06;58.47
61870;BME280;47810;42.264;23.826;2023-04-08T13:05:08;93939.53;;;9.97;59.99
61870;BME280;47810;42.264;23.826;2023-04-08T13:07:34;93944.34;;;9.91;59.93
61870;BME280;47810;42.264;23.826;2023-04-08T13:09:59;93938.59;;;9.98;60.47
61870;BME280;47810;42.264;23.826;2023-04-08T13:12:25;93934.25;;;9.83;59.32
61870;BME280;47810;42.264;23.826;2023-04-08T13:14:51;93927.66;;;9.90;59.30
61870;BME280;47810;42.264;23.826;2023-04-08T13:17:17;93930.78;;;9.83;59.21
61870;BME280;47810;42.264;23.826;2023-04-08T13:19:42;93924.44;;;9.85;59.65
61870;BME280;47810;42.264;23.826;2023-04-08T13:22:10;93928.22;;;9.81;59.95
61870;BME280;47810;42.264;23.826;2023-04-08T13:24:36;93917.78;;;9.94;60.43
61870;BME280;47810;42.264;23.826;2023-04-08T13:27:01;93922.00;;;9.96;59.46
61870;BME280;47810;42.264;23.826;2023-04-08T13:29:27;93919.53;;;10.08;59.43
61870;BME280;47810;42.264;23.826;2023-04-08T13:31:53;93915.53;;;10.02;61.13